Flight Track Log - Related Links

Times and Time Zones

All times are in EDT time to prevent confusion due to time zone crossing. See the G-VIIS flight status page for this flight to view local times or setup timezone preferences in your user account.

Time Position Orientation Groundspeed Altitude Reporting Facility
EDT Latitude Longitude Course Direction KTS MPH feet Rate Location/Type
Fri 01:28:00 PM 26.2335 50.6685 140° Southeast  Level Estimated
Fri 01:29:00 PM 26.1961 50.7033 140° Southeast  Level Estimated
Fri 01:29:32 PM 26.3960 50.6240 140° Southeast 273 314 4,800  Level FlightAware ADS-B
Fri 01:30:00 PM 26.1587 50.7381 140° Southeast  Level Estimated
Fri 01:30:07 PM 26.4010 50.6730 83° East 273 314 5,200  Level FlightAware ADS-B
Fri 01:30:57 PM 26.4030 50.7500 88° East 284 327 7,000 1,964 Climbing FlightAware ADS-B
Fri 01:31:02 PM 26.4040 50.7560 79° East 285 328 7,000 982 Level FlightAware ADS-B
Fri 01:31:52 PM 26.3920 50.8280 101° East 282 325 7,900 1,200 Climbing FlightAware ADS-B
Fri 01:32:17 PM 26.3780 50.8610 115° Southeast 282 325 8,500 1,636 Climbing FlightAware ADS-B
Fri 01:32:47 PM 26.3600 50.9020 116° Southeast 285 328 9,400 1,886 Climbing FlightAware ADS-B
Fri 01:33:27 PM 26.3370 50.9570 115° Southeast 310 357 10,700 1,728 Climbing FlightAware ADS-B
Fri 01:34:52 PM 26.2810 51.0860 116° Southeast 340 391 13,000 812 Climbing FlightAware ADS-B
Fri 01:36:17 PM 26.2270 51.2110 116° Southeast 337 388 13,000  Level FlightAware ADS-B
Fri 01:36:57 PM 26.1990 51.2770 115° Southeast 339 390 13,000  Level FlightAware ADS-B
Fri 01:37:42 PM 26.1680 51.3470 116° Southeast 334 384 13,000  Level FlightAware ADS-B
Fri 01:38:37 PM 26.1320 51.4310 116° Southeast 318 366 13,000  Level FlightAware ADS-B
Fri 01:39:17 PM 26.1060 51.4910 116° Southeast 318 366 13,000  Level FlightAware ADS-B
Fri 01:40:02 PM 26.0770 51.5590 115° Southeast 318 366 13,000  Level FlightAware ADS-B
Fri 01:40:42 PM 26.0510 51.6170 117° Southeast 312 359 13,000  Level FlightAware ADS-B
Fri 01:41:27 PM 26.0240 51.6810 115° Southeast 307 353 13,000  Level FlightAware ADS-B
Fri 01:42:02 PM 26.0000 51.7250 121° Southeast 299 344 13,000  Level FlightAware ADS-B
Fri 01:42:37 PM 25.9510 51.7430 162° South 293 337 13,000  Level FlightAware ADS-B
Fri 01:43:47 PM 25.8540 51.7510 176° South 294 338 13,000  Level FlightAware ADS-B
Fri 01:44:57 PM 25.7550 51.7480 182° South 294 338 13,000  Level FlightAware ADS-B
Fri 01:45:37 PM 25.7010 51.7400 188° South 294 338 13,000  Level FlightAware ADS-B
Fri 01:46:17 PM 25.6450 51.7320 187° South 294 338 13,000 -71 Level FlightAware ADS-B
Fri 01:47:02 PM 25.5830 51.7210 189° South 299 344 12,900 -635 Descending FlightAware ADS-B
Fri 01:47:42 PM 25.5290 51.7050 195° South 287 330 12,100 -1,950 Descending FlightAware ADS-B
Fri 01:48:22 PM 25.4750 51.6870 197° South 322 371 10,300 -2,618 Descending FlightAware ADS-B
Fri 01:48:37 PM 25.4530 51.6800 196° South 324 373 9,700 -2,400 Descending FlightAware ADS-B
Fri 01:49:07 PM 25.4100 51.6650 197° South 336 387 8,500 -2,267 Descending FlightAware ADS-B
Fri 01:49:22 PM 25.3860 51.6580 195° South 335 386 8,000 -1,350 Descending FlightAware ADS-B
Fri 01:49:47 PM 25.3480 51.6560 183° South 322 371 7,600 -764 Descending FlightAware ADS-B
Fri 01:50:17 PM 25.3050 51.6630 172° South 295 339 7,300 -655 Descending FlightAware ADS-B
Fri 01:50:42 PM 25.2710 51.6690 171° South 279 321 7,000 -327 Descending FlightAware ADS-B
Fri 01:51:12 PM 25.2320 51.6800 166° South 276 318 7,000  Level FlightAware ADS-B
Fri 01:51:42 PM 25.1980 51.6930 161° South 253 291 7,000 -86 Level FlightAware ADS-B
Fri 01:52:22 PM 25.1570 51.7080 162° South 254 292 6,900 -720 Descending FlightAware ADS-B
Fri 01:52:32 PM 25.1430 51.7120 165° South 241 277 6,400 -857 Descending FlightAware ADS-B
Fri 01:52:57 PM 25.1170 51.7220 161° South 241 277 6,400 -900 Level FlightAware ADS-B
Fri 01:53:32 PM 25.0800 51.7350 162° South 235 270 5,500 -1,440 Descending FlightAware ADS-B
Fri 01:53:47 PM 25.0650 51.7380 170° South 225 259 5,200 -1,050 Descending FlightAware ADS-B
Fri 01:54:12 PM 25.0410 51.7260 204° Southwest 220 253 4,800 -900 Descending FlightAware ADS-B
Fri 01:54:27 PM 25.0360 51.7120 248° West 220 253 4,600 -1,000 Descending FlightAware ADS-B
Fri 01:54:42 PM 25.0390 51.6930 280° West 213 245 4,300 -933 Descending FlightAware ADS-B
Fri 01:55:12 PM 25.0540 51.6650 301° West 198 228 3,900 -873 Descending FlightAware ADS-B
Fri 01:55:37 PM 25.0710 51.6490 320° Northwest 193 222 3,500 -900 Descending FlightAware ADS-B
Fri 01:55:52 PM 25.0820 51.6440 338° Northwest 192 221 3,300 -933 Descending FlightAware ADS-B
Fri 01:56:22 PM 25.1070 51.6330 338° Northwest 176 203 2,800 -1,000 Descending FlightAware ADS-B
Fri 01:56:52 PM 25.1290 51.6230 338° Northwest 162 186 2,300 -873 Descending FlightAware ADS-B
Fri 01:57:17 PM 25.1460 51.6160 340° North 161 185 2,000 -764 Descending FlightAware ADS-B
Fri 01:57:47 PM 25.1660 51.6070 338° Northwest 143 165 1,600 -764 Descending FlightAware ADS-B
Fri 01:58:12 PM 25.1820 51.6000 338° Northwest 137 158 1,300 -800 Descending FlightAware ADS-B
Fri 01:58:32 PM 25.1920 51.5950 336° Northwest 128 147 1,000 -400 Descending FlightAware ADS-B
Fri 01:58:57 PM 25.2050 51.5890 337° Northwest 128 147 1,000  Level FlightAware ADS-B
Fri 02:00:02 PM 25.2460 51.5720 339° North -923 Descending FlightAware ADS-B
Fri 02:02:00 PM 25.2611 51.5651 337° Northwest  Level Estimated
Fri 02:03:00 PM 25.2611 51.5651 324° Northwest  Level Estimated
Fri 02:04:00 PM 25.2611 51.5651 324° Northwest  Level Estimated
Fri 02:05:00 PM 25.2611 51.5651 324° Northwest  Level Estimated
Fri 02:06:00 PM 25.2611 51.5651 324° Northwest  Level Estimated
Fri 02:07:00 PM 25.2611 51.5651 324° Northwest  Level Estimated
Fri 02:08:00 PM 25.2611 51.5651 324° Northwest  Level Estimated
Fri 02:09:00 PM 25.2611 51.5651 324° Northwest  Level Estimated

Login

Don't have an account? Register now (free) for customized features, flight alerts, and more!